sensor_id;sensor_type;location;lat;lon;timestamp;P1;durP1;ratioP1;P2;durP2;ratioP2
23476;SDS011;11911;50.768;13.150;2022-08-25T04:01:40;12.53;;;11.30;;
23476;SDS011;11911;50.768;13.150;2022-08-25T04:04:07;12.73;;;11.20;;
23476;SDS011;11911;50.768;13.150;2022-08-25T04:06:36;14.97;;;13.47;;
23476;SDS011;11911;50.768;13.150;2022-08-25T04:09:03;13.20;;;11.90;;
23476;SDS011;11911;50.768;13.150;2022-08-25T04:11:28;16.40;;;14.67;;
23476;SDS011;11911;50.768;13.150;2022-08-25T04:13:57;17.20;;;15.37;;
23476;SDS011;11911;50.768;13.150;2022-08-25T04:16:26;15.03;;;13.63;;
23476;SDS011;11911;50.768;13.150;2022-08-25T04:18:54;19.33;;;14.20;;
23476;SDS011;11911;50.768;13.150;2022-08-25T04:26:31;13.40;;;11.90;;
23476;SDS011;11911;50.768;13.150;2022-08-25T04:29:02;17.27;;;11.97;;
23476;SDS011;11911;50.768;13.150;2022-08-25T04:31:29;18.10;;;13.17;;
23476;SDS011;11911;50.768;13.150;2022-08-25T04:33:55;20.73;;;16.50;;
23476;SDS011;11911;50.768;13.150;2022-08-25T04:36:22;19.47;;;16.40;;
23476;SDS011;11911;50.768;13.150;2022-08-25T04:38:47;27.40;;;19.60;;
23476;SDS011;11911;50.768;13.150;2022-08-25T04:41:14;22.73;;;18.87;;
23476;SDS011;11911;50.768;13.150;2022-08-25T04:43:41;29.00;;;20.47;;
23476;SDS011;11911;50.768;13.150;2022-08-25T04:46:09;25.23;;;16.80;;
23476;SDS011;11911;50.768;13.150;2022-08-25T04:48:37;23.27;;;17.33;;
23476;SDS011;11911;50.768;13.150;2022-08-25T04:51:08;15.37;;;13.70;;
23476;SDS011;11911;50.768;13.150;2022-08-25T04:53:36;11.67;;;10.47;;
23476;SDS011;11911;50.768;13.150;2022-08-25T04:56:06;11.23;;;10.03;;
23476;SDS011;11911;50.768;13.150;2022-08-25T04:58:34;9.63;;;8.77;;
23476;SDS011;11911;50.768;13.150;2022-08-25T05:01:02;10.40;;;9.30;;
23476;SDS011;11911;50.768;13.150;2022-08-25T05:03:31;10.60;;;9.70;;
23476;SDS011;11911;50.768;13.150;2022-08-25T05:05:57;14.30;;;9.40;;
23476;SDS011;11911;50.768;13.150;2022-08-25T05:08:23;10.50;;;9.50;;
23476;SDS011;11911;50.768;13.150;2022-08-25T05:10:49;18.50;;;10.90;;
23476;SDS011;11911;50.768;13.150;2022-08-25T05:13:14;12.33;;;9.67;;
23476;SDS011;11911;50.768;13.150;2022-08-25T05:15:40;12.20;;;10.93;;
23476;SDS011;11911;50.768;13.150;2022-08-25T05:18:15;9.60;;;8.60;;
23476;SDS011;11911;50.768;13.150;2022-08-25T05:20:44;11.53;;;10.30;;
23476;SDS011;11911;50.768;13.150;2022-08-25T05:23:10;13.90;;;9.10;;
23476;SDS011;11911;50.768;13.150;2022-08-25T05:25:35;9.57;;;8.67;;
23476;SDS011;11911;50.768;13.150;2022-08-25T05:28:01;10.30;;;8.80;;
23476;SDS011;11911;50.768;13.150;2022-08-25T05:30:27;10.33;;;9.20;;
23476;SDS011;11911;50.768;13.150;2022-08-25T05:32:53;9.63;;;8.60;;
23476;SDS011;11911;50.768;13.150;2022-08-25T05:35:18;9.10;;;8.30;;
23476;SDS011;11911;50.768;13.150;2022-08-25T05:37:44;8.60;;;7.80;;
23476;SDS011;11911;50.768;13.150;2022-08-25T05:40:10;7.90;;;6.93;;
23476;SDS011;11911;50.768;13.150;2022-08-25T05:42:35;8.77;;;7.00;;
23476;SDS011;11911;50.768;13.150;2022-08-25T05:45:01;7.10;;;6.07;;
23476;SDS011;11911;50.768;13.150;2022-08-25T05:47:30;7.60;;;6.90;;
23476;SDS011;11911;50.768;13.150;2022-08-25T05:49:56;10.03;;;6.30;;
23476;SDS011;11911;50.768;13.150;2022-08-25T05:52:22;8.20;;;6.07;;
23476;SDS011;11911;50.768;13.150;2022-08-25T05:54:47;7.60;;;6.80;;
23476;SDS011;11911;50.768;13.150;2022-08-25T05:57:13;13.37;;;6.70;;
23476;SDS011;11911;50.768;13.150;2022-08-25T05:59:39;9.67;;;6.63;;
23476;SDS011;11911;50.768;13.150;2022-08-25T06:02:04;8.80;;;5.40;;
23476;SDS011;11911;50.768;13.150;2022-08-25T06:04:49;10.40;;;6.00;;
23476;SDS011;11911;50.768;13.150;2022-08-25T06:07:15;7.20;;;5.60;;
23476;SDS011;11911;50.768;13.150;2022-08-25T06:09:40;10.10;;;5.53;;
23476;SDS011;11911;50.768;13.150;2022-08-25T06:12:06;7.33;;;5.70;;
23476;SDS011;11911;50.768;13.150;2022-08-25T06:14:32;6.30;;;5.80;;
23476;SDS011;11911;50.768;13.150;2022-08-25T06:16:58;6.60;;;5.23;;
23476;SDS011;11911;50.768;13.150;2022-08-25T06:19:24;11.50;;;5.60;;
23476;SDS011;11911;50.768;13.150;2022-08-25T06:21:54;7.97;;;5.80;;
23476;SDS011;11911;50.768;13.150;2022-08-25T06:24:20;6.93;;;6.23;;
23476;SDS011;11911;50.768;13.150;2022-08-25T06:26:46;9.40;;;5.33;;
23476;SDS011;11911;50.768;13.150;2022-08-25T06:29:12;5.80;;;5.27;;
23476;SDS011;11911;50.768;13.150;2022-08-25T06:31:38;6.10;;;5.40;;
23476;SDS011;11911;50.768;13.150;2022-08-25T06:34:03;6.07;;;5.00;;
23476;SDS011;11911;50.768;13.150;2022-08-25T06:36:30;6.33;;;5.27;;
23476;SDS011;11911;50.768;13.150;2022-08-25T06:38:56;7.20;;;5.40;;
23476;SDS011;11911;50.768;13.150;2022-08-25T06:41:21;10.63;;;5.80;;
23476;SDS011;11911;50.768;13.150;2022-08-25T06:43:47;10.20;;;5.10;;
23476;SDS011;11911;50.768;13.150;2022-08-25T06:46:19;6.00;;;5.40;;
23476;SDS011;11911;50.768;13.150;2022-08-25T06:48:47;9.07;;;6.10;;
23476;SDS011;11911;50.768;13.150;2022-08-25T06:51:14;6.93;;;5.50;;
23476;SDS011;11911;50.768;13.150;2022-08-25T06:53:42;6.53;;;5.93;;
23476;SDS011;11911;50.768;13.150;2022-08-25T06:56:09;7.10;;;5.40;;
23476;SDS011;11911;50.768;13.150;2022-08-25T06:58:35;5.90;;;5.30;;
23476;SDS011;11911;50.768;13.150;2022-08-25T07:01:11;8.88;;;5.32;;
23476;SDS011;11911;50.768;13.150;2022-08-25T07:03:44;6.93;;;6.22;;
23476;SDS011;11911;50.768;13.150;2022-08-25T07:06:10;6.82;;;5.78;;
23476;SDS011;11911;50.768;13.150;2022-08-25T07:08:35;6.28;;;5.57;;
23476;SDS011;11911;50.768;13.150;2022-08-25T07:11:04;9.55;;;6.20;;
23476;SDS011;11911;50.768;13.150;2022-08-25T07:13:31;9.95;;;6.95;;
23476;SDS011;11911;50.768;13.150;2022-08-25T07:15:57;10.82;;;6.88;;
23476;SDS011;11911;50.768;13.150;2022-08-25T07:18:22;10.02;;;6.35;;
23476;SDS011;11911;50.768;13.150;2022-08-25T07:20:48;9.20;;;6.15;;
23476;SDS011;11911;50.768;13.150;2022-08-25T07:23:15;15.02;;;5.82;;
23476;SDS011;11911;50.768;13.150;2022-08-25T07:25:42;10.65;;;6.10;;
23476;SDS011;11911;50.768;13.150;2022-08-25T07:28:07;12.18;;;6.78;;
23476;SDS011;11911;50.768;13.150;2022-08-25T07:30:32;11.25;;;7.03;;
23476;SDS011;11911;50.768;13.150;2022-08-25T07:32:58;9.25;;;6.32;;
23476;SDS011;11911;50.768;13.150;2022-08-25T07:35:23;11.50;;;6.47;;
23476;SDS011;11911;50.768;13.150;2022-08-25T07:37:52;8.55;;;6.55;;
23476;SDS011;11911;50.768;13.150;2022-08-25T07:40:33;8.95;;;6.72;;
23476;SDS011;11911;50.768;13.150;2022-08-25T07:43:03;8.07;;;6.65;;
23476;SDS011;11911;50.768;13.150;2022-08-25T07:45:32;12.20;;;7.78;;
23476;SDS011;11911;50.768;13.150;2022-08-25T07:48:00;11.30;;;7.28;;
23476;SDS011;11911;50.768;13.150;2022-08-25T07:50:37;8.65;;;7.22;;
23476;SDS011;11911;50.768;13.150;2022-08-25T07:53:05;12.43;;;7.40;;
23476;SDS011;11911;50.768;13.150;2022-08-25T07:55:32;8.20;;;6.50;;
23476;SDS011;11911;50.768;13.150;2022-08-25T07:58:00;19.93;;;7.80;;
23476;SDS011;11911;50.768;13.150;2022-08-25T08:00:27;10.90;;;6.85;;
23476;SDS011;11911;50.768;13.150;2022-08-25T08:02:56;11.93;;;7.78;;
23476;SDS011;11911;50.768;13.150;2022-08-25T08:05:23;19.10;;;7.03;;
23476;SDS011;11911;50.768;13.150;2022-08-25T08:07:49;11.82;;;7.22;;
23476;SDS011;11911;50.768;13.150;2022-08-25T08:10:15;9.40;;;7.70;;
23476;SDS011;11911;50.768;13.150;2022-08-25T08:12:41;12.00;;;7.73;;
23476;SDS011;11911;50.768;13.150;2022-08-25T08:15:07;14.67;;;7.43;;
23476;SDS011;11911;50.768;13.150;2022-08-25T08:17:33;9.13;;;6.30;;
23476;SDS011;11911;50.768;13.150;2022-08-25T08:19:59;15.20;;;6.93;;
23476;SDS011;11911;50.768;13.150;2022-08-25T08:22:25;12.47;;;7.40;;
23476;SDS011;11911;50.768;13.150;2022-08-25T08:24:51;10.83;;;7.10;;
23476;SDS011;11911;50.768;13.150;2022-08-25T08:27:16;12.87;;;7.13;;
23476;SDS011;11911;50.768;13.150;2022-08-25T08:29:41;12.40;;;6.60;;
23476;SDS011;11911;50.768;13.150;2022-08-25T08:32:08;13.07;;;7.17;;
23476;SDS011;11911;50.768;13.150;2022-08-25T08:34:37;14.47;;;7.43;;
23476;SDS011;11911;50.768;13.150;2022-08-25T08:37:04;8.77;;;6.13;;
23476;SDS011;11911;50.768;13.150;2022-08-25T08:39:30;10.03;;;7.00;;
23476;SDS011;11911;50.768;13.150;2022-08-25T08:55:50;15.77;;;7.50;;
23476;SDS011;11911;50.768;13.150;2022-08-25T09:00:52;11.70;;;6.73;;
23476;SDS011;11911;50.768;13.150;2022-08-25T09:03:36;12.13;;;7.00;;
23476;SDS011;11911;50.768;13.150;2022-08-25T09:08:41;17.30;;;6.77;;
23476;SDS011;11911;50.768;13.150;2022-08-25T09:11:21;17.03;;;7.30;;
23476;SDS011;11911;50.768;13.150;2022-08-25T09:14:01;27.03;;;7.77;;
23476;SDS011;11911;50.768;13.150;2022-08-25T09:16:31;16.47;;;6.90;;
23476;SDS011;11911;50.768;13.150;2022-08-25T09:22:25;16.20;;;7.40;;
23476;SDS011;11911;50.768;13.150;2022-08-25T09:25:10;18.20;;;7.53;;
23476;SDS011;11911;50.768;13.150;2022-08-25T09:30:21;18.83;;;6.90;;
23476;SDS011;11911;50.768;13.150;2022-08-25T09:32:48;13.87;;;5.90;;
23476;SDS011;11911;50.768;13.150;2022-08-25T09:35:22;13.27;;;7.00;;
23476;SDS011;11911;50.768;13.150;2022-08-25T09:37:54;26.50;;;6.70;;
23476;SDS011;11911;50.768;13.150;2022-08-25T09:40:21;15.03;;;6.53;;
23476;SDS011;11911;50.768;13.150;2022-08-25T09:42:49;10.77;;;6.10;;
23476;SDS011;11911;50.768;13.150;2022-08-25T09:45:29;41.27;;;6.30;;
23476;SDS011;11911;50.768;13.150;2022-08-25T09:48:17;17.23;;;6.43;;
23476;SDS011;11911;50.768;13.150;2022-08-25T09:50:45;26.47;;;6.50;;
23476;SDS011;11911;50.768;13.150;2022-08-25T09:53:13;27.80;;;7.63;;
23476;SDS011;11911;50.768;13.150;2022-08-25T09:55:40;17.53;;;5.90;;
23476;SDS011;11911;50.768;13.150;2022-08-25T09:58:13;24.93;;;6.20;;
23476;SDS011;11911;50.768;13.150;2022-08-25T10:00:45;21.77;;;6.23;;
23476;SDS011;11911;50.768;13.150;2022-08-25T10:03:26;16.13;;;5.90;;
23476;SDS011;11911;50.768;13.150;2022-08-25T10:06:11;22.47;;;7.33;;
23476;SDS011;11911;50.768;13.150;2022-08-25T10:08:40;21.43;;;6.73;;
23476;SDS011;11911;50.768;13.150;2022-08-25T10:11:36;16.33;;;6.20;;
23476;SDS011;11911;50.768;13.150;2022-08-25T10:16:41;19.80;;;6.33;;
23476;SDS011;11911;50.768;13.150;2022-08-25T10:19:09;29.30;;;6.67;;
23476;SDS011;11911;50.768;13.150;2022-08-25T11:29:11;28.17;;;5.97;;
23476;SDS011;11911;50.768;13.150;2022-08-25T11:31:41;33.37;;;6.17;;
23476;SDS011;11911;50.768;13.150;2022-08-25T11:34:10;42.83;;;6.77;;
23476;SDS011;11911;50.768;13.150;2022-08-25T11:36:39;34.33;;;6.00;;
23476;SDS011;11911;50.768;13.150;2022-08-25T11:39:16;36.83;;;7.27;;
23476;SDS011;11911;50.768;13.150;2022-08-25T11:44:37;28.47;;;6.03;;
23476;SDS011;11911;50.768;13.150;2022-08-25T11:52:50;23.87;;;6.83;;
23476;SDS011;11911;50.768;13.150;2022-08-25T11:55:22;31.67;;;6.60;;
23476;SDS011;11911;50.768;13.150;2022-08-25T11:58:13;19.50;;;5.43;;
23476;SDS011;11911;50.768;13.150;2022-08-25T12:00:50;20.40;;;5.70;;
23476;SDS011;11911;50.768;13.150;2022-08-25T12:03:44;35.23;;;6.03;;
23476;SDS011;11911;50.768;13.150;2022-08-25T12:06:17;27.20;;;5.77;;
23476;SDS011;11911;50.768;13.150;2022-08-25T12:14:15;21.97;;;5.87;;
23476;SDS011;11911;50.768;13.150;2022-08-25T12:21:51;27.60;;;6.63;;
23476;SDS011;11911;50.768;13.150;2022-08-25T12:24:20;18.77;;;5.30;;
23476;SDS011;11911;50.768;13.150;2022-08-25T12:27:00;31.43;;;5.60;;
23476;SDS011;11911;50.768;13.150;2022-08-25T12:34:33;20.80;;;5.27;;
23476;SDS011;11911;50.768;13.150;2022-08-25T12:37:14;31.70;;;6.37;;
23476;SDS011;11911;50.768;13.150;2022-08-25T12:40:04;35.70;;;6.83;;
23476;SDS011;11911;50.768;13.150;2022-08-25T12:42:38;22.17;;;5.40;;
23476;SDS011;11911;50.768;13.150;2022-08-25T12:47:50;26.93;;;5.80;;
23476;SDS011;11911;50.768;13.150;2022-08-25T12:50:24;25.90;;;5.63;;
23476;SDS011;11911;50.768;13.150;2022-08-25T12:53:06;21.53;;;5.77;;
23476;SDS011;11911;50.768;13.150;2022-08-25T12:55:41;15.43;;;5.40;;
23476;SDS011;11911;50.768;13.150;2022-08-25T12:58:15;22.10;;;5.70;;
23476;SDS011;11911;50.768;13.150;2022-08-25T13:03:50;32.00;;;6.80;;
23476;SDS011;11911;50.768;13.150;2022-08-25T13:12:46;27.10;;;6.10;;
23476;SDS011;11911;50.768;13.150;2022-08-25T13:15:23;22.00;;;5.67;;
23476;SDS011;11911;50.768;13.150;2022-08-25T13:18:13;24.00;;;5.73;;
23476;SDS011;11911;50.768;13.150;2022-08-25T13:20:41;19.40;;;5.90;;
23476;SDS011;11911;50.768;13.150;2022-08-25T13:23:08;24.80;;;7.03;;
23476;SDS011;11911;50.768;13.150;2022-08-25T13:25:34;24.27;;;4.80;;
23476;SDS011;11911;50.768;13.150;2022-08-25T13:28:10;21.07;;;6.00;;
23476;SDS011;11911;50.768;13.150;2022-08-25T13:31:16;20.60;;;5.47;;
23476;SDS011;11911;50.768;13.150;2022-08-25T13:33:56;14.77;;;5.50;;
23476;SDS011;11911;50.768;13.150;2022-08-25T13:36:41;29.90;;;6.30;;
23476;SDS011;11911;50.768;13.150;2022-08-25T13:39:27;22.20;;;5.90;;
23476;SDS011;11911;50.768;13.150;2022-08-25T13:41:55;15.40;;;5.20;;
23476;SDS011;11911;50.768;13.150;2022-08-25T13:44:25;16.30;;;5.40;;
23476;SDS011;11911;50.768;13.150;2022-08-25T13:49:39;18.97;;;5.37;;
23476;SDS011;11911;50.768;13.150;2022-08-25T13:52:06;18.57;;;5.97;;
23476;SDS011;11911;50.768;13.150;2022-08-25T13:54:40;19.80;;;5.10;;
23476;SDS011;11911;50.768;13.150;2022-08-25T13:57:20;22.73;;;6.30;;
23476;SDS011;11911;50.768;13.150;2022-08-25T13:59:49;21.33;;;6.30;;
23476;SDS011;11911;50.768;13.150;2022-08-25T14:02:40;32.00;;;6.10;;
23476;SDS011;11911;50.768;13.150;2022-08-25T14:05:11;24.93;;;5.37;;
23476;SDS011;11911;50.768;13.150;2022-08-25T14:07:38;17.17;;;5.87;;
23476;SDS011;11911;50.768;13.150;2022-08-25T14:10:05;18.10;;;5.23;;
23476;SDS011;11911;50.768;13.150;2022-08-25T14:13:06;22.37;;;5.33;;
23476;SDS011;11911;50.768;13.150;2022-08-25T14:15:39;19.10;;;5.80;;
23476;SDS011;11911;50.768;13.150;2022-08-25T14:18:09;26.10;;;6.17;;
23476;SDS011;11911;50.768;13.150;2022-08-25T14:20:49;33.20;;;5.90;;
23476;SDS011;11911;50.768;13.150;2022-08-25T14:23:18;24.57;;;5.30;;
23476;SDS011;11911;50.768;13.150;2022-08-25T14:25:47;27.50;;;6.50;;
23476;SDS011;11911;50.768;13.150;2022-08-25T14:28:15;30.57;;;6.43;;
23476;SDS011;11911;50.768;13.150;2022-08-25T14:30:44;19.00;;;5.20;;
23476;SDS011;11911;50.768;13.150;2022-08-25T14:33:13;20.50;;;5.30;;
23476;SDS011;11911;50.768;13.150;2022-08-25T14:35:42;22.07;;;6.07;;
23476;SDS011;11911;50.768;13.150;2022-08-25T14:38:10;20.13;;;5.80;;
23476;SDS011;11911;50.768;13.150;2022-08-25T14:40:36;16.50;;;4.70;;
23476;SDS011;11911;50.768;13.150;2022-08-25T14:43:03;35.30;;;8.37;;
23476;SDS011;11911;50.768;13.150;2022-08-25T14:45:29;19.80;;;5.13;;
23476;SDS011;11911;50.768;13.150;2022-08-25T14:47:56;32.90;;;5.97;;
23476;SDS011;11911;50.768;13.150;2022-08-25T14:50:27;21.63;;;6.30;;
23476;SDS011;11911;50.768;13.150;2022-08-25T14:52:53;23.67;;;6.37;;
23476;SDS011;11911;50.768;13.150;2022-08-25T14:55:19;19.77;;;5.67;;
23476;SDS011;11911;50.768;13.150;2022-08-25T14:57:44;28.23;;;5.00;;
23476;SDS011;11911;50.768;13.150;2022-08-25T15:00:10;21.20;;;5.87;;
23476;SDS011;11911;50.768;13.150;2022-08-25T15:02:37;17.67;;;5.63;;
23476;SDS011;11911;50.768;13.150;2022-08-25T15:05:06;13.60;;;5.20;;
23476;SDS011;11911;50.768;13.150;2022-08-25T15:07:35;24.93;;;5.40;;
23476;SDS011;11911;50.768;13.150;2022-08-25T15:10:20;18.80;;;5.20;;
23476;SDS011;11911;50.768;13.150;2022-08-25T15:12:45;37.27;;;5.43;;
23476;SDS011;11911;50.768;13.150;2022-08-25T15:15:11;29.80;;;5.77;;
23476;SDS011;11911;50.768;13.150;2022-08-25T15:17:37;23.07;;;5.63;;
23476;SDS011;11911;50.768;13.150;2022-08-25T15:20:05;19.53;;;5.30;;
23476;SDS011;11911;50.768;13.150;2022-08-25T15:22:32;19.13;;;5.57;;
23476;SDS011;11911;50.768;13.150;2022-08-25T15:24:57;19.13;;;5.87;;
23476;SDS011;11911;50.768;13.150;2022-08-25T15:27:22;32.50;;;6.63;;
23476;SDS011;11911;50.768;13.150;2022-08-25T15:29:48;22.40;;;5.50;;
23476;SDS011;11911;50.768;13.150;2022-08-25T15:32:14;30.30;;;6.50;;
23476;SDS011;11911;50.768;13.150;2022-08-25T15:34:39;32.03;;;6.00;;
23476;SDS011;11911;50.768;13.150;2022-08-25T15:37:06;30.80;;;6.20;;
23476;SDS011;11911;50.768;13.150;2022-08-25T15:39:35;18.10;;;5.43;;
23476;SDS011;11911;50.768;13.150;2022-08-25T15:42:01;25.43;;;5.20;;
23476;SDS011;11911;50.768;13.150;2022-08-25T15:44:27;21.40;;;6.20;;
23476;SDS011;11911;50.768;13.150;2022-08-25T15:46:53;27.53;;;5.40;;
23476;SDS011;11911;50.768;13.150;2022-08-25T15:49:19;19.10;;;6.00;;
23476;SDS011;11911;50.768;13.150;2022-08-25T15:51:44;26.00;;;4.97;;
23476;SDS011;11911;50.768;13.150;2022-08-25T15:54:10;30.20;;;7.60;;
23476;SDS011;11911;50.768;13.150;2022-08-25T15:56:38;26.03;;;5.60;;
23476;SDS011;11911;50.768;13.150;2022-08-25T15:59:04;20.47;;;5.63;;
23476;SDS011;11911;50.768;13.150;2022-08-25T16:01:30;19.00;;;4.70;;
23476;SDS011;11911;50.768;13.150;2022-08-25T16:03:56;26.27;;;6.27;;
23476;SDS011;11911;50.768;13.150;2022-08-25T16:06:21;17.47;;;5.80;;
23476;SDS011;11911;50.768;13.150;2022-08-25T16:08:49;25.90;;;5.97;;
23476;SDS011;11911;50.768;13.150;2022-08-25T16:11:16;19.67;;;5.07;;
23476;SDS011;11911;50.768;13.150;2022-08-25T16:13:44;35.07;;;5.63;;
23476;SDS011;11911;50.768;13.150;2022-08-25T16:16:11;24.67;;;6.60;;
23476;SDS011;11911;50.768;13.150;2022-08-25T16:18:40;28.43;;;5.90;;
23476;SDS011;11911;50.768;13.150;2022-08-25T16:21:11;25.73;;;6.73;;
23476;SDS011;11911;50.768;13.150;2022-08-25T16:23:38;20.90;;;6.10;;
23476;SDS011;11911;50.768;13.150;2022-08-25T16:26:04;28.67;;;5.40;;
23476;SDS011;11911;50.768;13.150;2022-08-25T16:28:33;21.33;;;5.83;;
23476;SDS011;11911;50.768;13.150;2022-08-25T16:31:03;28.30;;;6.57;;
23476;SDS011;11911;50.768;13.150;2022-08-25T16:33:29;31.03;;;6.00;;
23476;SDS011;11911;50.768;13.150;2022-08-25T16:36:08;32.60;;;6.77;;
23476;SDS011;11911;50.768;13.150;2022-08-25T16:38:38;24.00;;;5.97;;
23476;SDS011;11911;50.768;13.150;2022-08-25T16:41:09;25.73;;;6.43;;
23476;SDS011;11911;50.768;13.150;2022-08-25T16:43:37;25.27;;;6.07;;
23476;SDS011;11911;50.768;13.150;2022-08-25T16:46:05;34.07;;;7.73;;
23476;SDS011;11911;50.768;13.150;2022-08-25T16:48:32;32.43;;;5.87;;
23476;SDS011;11911;50.768;13.150;2022-08-25T16:50:58;27.63;;;6.63;;
23476;SDS011;11911;50.768;13.150;2022-08-25T16:53:24;29.60;;;6.73;;
23476;SDS011;11911;50.768;13.150;2022-08-25T16:56:08;20.30;;;4.63;;
23476;SDS011;11911;50.768;13.150;2022-08-25T16:58:34;28.47;;;5.40;;
23476;SDS011;11911;50.768;13.150;2022-08-25T17:01:07;22.37;;;5.93;;
23476;SDS011;11911;50.768;13.150;2022-08-25T17:03:36;25.50;;;6.13;;
23476;SDS011;11911;50.768;13.150;2022-08-25T17:06:04;24.57;;;5.80;;
23476;SDS011;11911;50.768;13.150;2022-08-25T17:08:30;26.53;;;5.60;;
23476;SDS011;11911;50.768;13.150;2022-08-25T17:11:15;34.80;;;6.57;;
23476;SDS011;11911;50.768;13.150;2022-08-25T17:13:46;29.20;;;6.40;;
23476;SDS011;11911;50.768;13.150;2022-08-25T17:16:13;15.70;;;5.20;;
23476;SDS011;11911;50.768;13.150;2022-08-25T17:18:40;35.03;;;5.80;;
23476;SDS011;11911;50.768;13.150;2022-08-25T17:21:10;27.87;;;6.53;;
23476;SDS011;11911;50.768;13.150;2022-08-25T17:23:37;27.10;;;5.60;;
23476;SDS011;11911;50.768;13.150;2022-08-25T17:26:03;35.53;;;6.20;;
23476;SDS011;11911;50.768;13.150;2022-08-25T17:28:30;35.03;;;6.27;;
23476;SDS011;11911;50.768;13.150;2022-08-25T17:30:56;20.63;;;6.50;;
23476;SDS011;11911;50.768;13.150;2022-08-25T17:33:22;23.03;;;6.40;;
23476;SDS011;11911;50.768;13.150;2022-08-25T17:35:48;24.83;;;5.53;;
23476;SDS011;11911;50.768;13.150;2022-08-25T17:38:16;35.80;;;7.37;;
23476;SDS011;11911;50.768;13.150;2022-08-25T17:40:44;39.17;;;6.70;;
23476;SDS011;11911;50.768;13.150;2022-08-25T17:43:11;27.97;;;7.20;;
23476;SDS011;11911;50.768;13.150;2022-08-25T17:45:37;15.63;;;5.10;;
23476;SDS011;11911;50.768;13.150;2022-08-25T17:48:03;24.97;;;5.43;;
23476;SDS011;11911;50.768;13.150;2022-08-25T17:50:30;29.67;;;6.00;;
23476;SDS011;11911;50.768;13.150;2022-08-25T17:52:55;31.23;;;6.57;;
23476;SDS011;11911;50.768;13.150;2022-08-25T17:55:21;29.03;;;6.13;;
23476;SDS011;11911;50.768;13.150;2022-08-25T17:57:48;23.63;;;5.00;;
23476;SDS011;11911;50.768;13.150;2022-08-25T18:00:15;33.07;;;6.63;;
23476;SDS011;11911;50.768;13.150;2022-08-25T18:02:42;30.67;;;5.80;;
23476;SDS011;11911;50.768;13.150;2022-08-25T18:05:08;30.17;;;6.47;;
23476;SDS011;11911;50.768;13.150;2022-08-25T18:07:33;33.40;;;6.33;;
23476;SDS011;11911;50.768;13.150;2022-08-25T18:10:00;37.17;;;6.53;;
23476;SDS011;11911;50.768;13.150;2022-08-25T18:12:30;22.80;;;6.20;;
23476;SDS011;11911;50.768;13.150;2022-08-25T18:14:55;24.90;;;8.10;;
23476;SDS011;11911;50.768;13.150;2022-08-25T18:17:21;32.17;;;8.00;;
23476;SDS011;11911;50.768;13.150;2022-08-25T18:19:46;26.07;;;6.30;;
23476;SDS011;11911;50.768;13.150;2022-08-25T18:22:13;34.93;;;6.97;;
23476;SDS011;11911;50.768;13.150;2022-08-25T18:24:39;35.10;;;6.50;;
23476;SDS011;11911;50.768;13.150;2022-08-25T18:27:05;25.27;;;6.53;;
23476;SDS011;11911;50.768;13.150;2022-08-25T18:29:31;30.20;;;6.50;;
23476;SDS011;11911;50.768;13.150;2022-08-25T18:31:57;23.23;;;5.80;;
23476;SDS011;11911;50.768;13.150;2022-08-25T18:34:22;22.00;;;6.60;;
23476;SDS011;11911;50.768;13.150;2022-08-25T18:36:48;26.00;;;7.30;;
23476;SDS011;11911;50.768;13.150;2022-08-25T18:39:14;28.60;;;7.70;;
23476;SDS011;11911;50.768;13.150;2022-08-25T18:42:00;17.30;;;6.87;;
23476;SDS011;11911;50.768;13.150;2022-08-25T18:44:27;19.00;;;6.20;;
23476;SDS011;11911;50.768;13.150;2022-08-25T18:46:52;25.43;;;7.27;;
23476;SDS011;11911;50.768;13.150;2022-08-25T18:49:18;16.57;;;5.63;;
23476;SDS011;11911;50.768;13.150;2022-08-25T18:51:45;28.40;;;7.13;;
23476;SDS011;11911;50.768;13.150;2022-08-25T18:54:12;39.70;;;8.80;;
23476;SDS011;11911;50.768;13.150;2022-08-25T18:56:38;27.60;;;6.90;;
23476;SDS011;11911;50.768;13.150;2022-08-25T18:59:04;26.13;;;7.03;;
23476;SDS011;11911;50.768;13.150;2022-08-25T19:01:32;33.10;;;9.33;;
23476;SDS011;11911;50.768;13.150;2022-08-25T19:03:58;27.63;;;8.63;;
23476;SDS011;11911;50.768;13.150;2022-08-25T19:06:24;31.80;;;7.50;;
23476;SDS011;11911;50.768;13.150;2022-08-25T19:08:50;31.73;;;8.23;;
23476;SDS011;11911;50.768;13.150;2022-08-25T19:11:16;27.77;;;7.50;;
23476;SDS011;11911;50.768;13.150;2022-08-25T19:13:42;22.10;;;7.07;;
23476;SDS011;11911;50.768;13.150;2022-08-25T19:16:12;29.07;;;7.60;;
23476;SDS011;11911;50.768;13.150;2022-08-25T19:18:41;16.97;;;7.80;;
23476;SDS011;11911;50.768;13.150;2022-08-25T19:21:07;32.33;;;8.10;;
23476;SDS011;11911;50.768;13.150;2022-08-25T19:23:32;23.57;;;7.33;;
23476;SDS011;11911;50.768;13.150;2022-08-25T19:26:02;24.80;;;7.60;;
23476;SDS011;11911;50.768;13.150;2022-08-25T19:28:29;46.40;;;9.03;;
23476;SDS011;11911;50.768;13.150;2022-08-25T19:30:55;29.90;;;8.40;;
23476;SDS011;11911;50.768;13.150;2022-08-25T19:33:21;25.00;;;7.80;;
23476;SDS011;11911;50.768;13.150;2022-08-25T19:35:48;29.83;;;7.40;;
23476;SDS011;11911;50.768;13.150;2022-08-25T19:38:16;37.17;;;8.03;;
23476;SDS011;11911;50.768;13.150;2022-08-25T19:40:45;27.60;;;8.30;;
23476;SDS011;11911;50.768;13.150;2022-08-25T19:43:12;36.70;;;7.70;;
23476;SDS011;11911;50.768;13.150;2022-08-25T19:45:37;30.50;;;7.50;;
23476;SDS011;11911;50.768;13.150;2022-08-25T19:48:05;26.90;;;7.70;;
23476;SDS011;11911;50.768;13.150;2022-08-25T19:50:31;21.10;;;8.40;;
23476;SDS011;11911;50.768;13.150;2022-08-25T19:52:57;36.30;;;9.20;;
23476;SDS011;11911;50.768;13.150;2022-08-25T19:55:22;20.90;;;7.70;;
23476;SDS011;11911;50.768;13.150;2022-08-25T19:57:48;34.20;;;9.80;;
23476;SDS011;11911;50.768;13.150;2022-08-25T20:00:17;52.33;;;9.37;;
23476;SDS011;11911;50.768;13.150;2022-08-25T20:02:45;18.30;;;7.73;;
23476;SDS011;11911;50.768;13.150;2022-08-25T20:05:11;26.77;;;9.70;;
23476;SDS011;11911;50.768;13.150;2022-08-25T20:07:38;23.57;;;8.67;;
23476;SDS011;11911;50.768;13.150;2022-08-25T20:10:05;23.20;;;8.03;;
23476;SDS011;11911;50.768;13.150;2022-08-25T20:12:32;24.67;;;9.07;;
23476;SDS011;11911;50.768;13.150;2022-08-25T20:14:59;29.77;;;9.37;;
23476;SDS011;11911;50.768;13.150;2022-08-25T20:17:25;42.43;;;9.70;;
23476;SDS011;11911;50.768;13.150;2022-08-25T20:19:52;25.07;;;8.87;;
23476;SDS011;11911;50.768;13.150;2022-08-25T20:22:18;20.47;;;8.37;;
23476;SDS011;11911;50.768;13.150;2022-08-25T20:24:44;23.40;;;8.80;;
23476;SDS011;11911;50.768;13.150;2022-08-25T20:27:17;32.37;;;8.80;;
23476;SDS011;11911;50.768;13.150;2022-08-25T20:29:45;25.77;;;8.30;;
23476;SDS011;11911;50.768;13.150;2022-08-25T20:32:12;26.07;;;8.90;;
23476;SDS011;11911;50.768;13.150;2022-08-25T20:34:37;25.03;;;8.03;;
23476;SDS011;11911;50.768;13.150;2022-08-25T20:37:03;23.53;;;7.67;;
23476;SDS011;11911;50.768;13.150;2022-08-25T20:39:29;35.57;;;9.00;;
23476;SDS011;11911;50.768;13.150;2022-08-25T20:41:54;24.03;;;7.97;;
23476;SDS011;11911;50.768;13.150;2022-08-25T20:44:20;37.50;;;9.23;;
23476;SDS011;11911;50.768;13.150;2022-08-25T20:46:46;25.40;;;8.10;;
23476;SDS011;11911;50.768;13.150;2022-08-25T20:49:12;30.10;;;8.17;;
23476;SDS011;11911;50.768;13.150;2022-08-25T20:51:37;30.13;;;8.93;;
23476;SDS011;11911;50.768;13.150;2022-08-25T20:54:03;36.83;;;10.60;;